createdAt,value
2023-05-23T00:03:59.650Z,24.10
2023-05-23T00:09:01.840Z,20.47
2023-05-23T00:14:03.580Z,24.13
2023-05-23T00:19:05.390Z,28.50
2023-05-23T00:24:07.590Z,22.93
2023-05-23T00:29:15.636Z,21.07
2023-05-23T00:34:17.952Z,24.33
2023-05-23T00:39:20.926Z,24.17
2023-05-23T00:44:23.252Z,23.73
2023-05-23T00:49:27.992Z,21.50
2023-05-23T00:54:33.441Z,23.23
2023-05-23T00:59:37.265Z,21.00
2023-05-23T01:04:39.435Z,22.00
2023-05-23T01:09:41.168Z,22.10
2023-05-23T01:14:49.667Z,25.80
2023-05-23T01:20:17.889Z,24.10
2023-05-23T01:25:36.786Z,25.17
2023-05-23T01:30:41.190Z,22.63
2023-05-23T01:35:43.973Z,19.60
2023-05-23T01:40:45.728Z,24.03
2023-05-23T01:45:48.981Z,21.70
2023-05-23T01:50:51.213Z,24.83
2023-05-23T01:55:53.277Z,22.97
2023-05-23T02:00:54.988Z,26.07
2023-05-23T02:05:56.682Z,22.97
2023-05-23T02:10:58.391Z,21.53
2023-05-23T02:16:00.524Z,23.90
2023-05-23T02:21:02.431Z,24.67
2023-05-23T02:26:04.340Z,22.20
2023-05-23T02:31:06.644Z,20.47
2023-05-23T02:36:08.505Z,23.83
2023-05-23T02:41:11.590Z,20.27
2023-05-23T02:46:13.801Z,23.70
2023-05-23T02:51:15.693Z,20.40
2023-05-23T02:56:17.486Z,21.63
2023-05-23T03:01:19.981Z,23.00
2023-05-23T03:06:22.358Z,23.47
2023-05-23T03:11:24.302Z,26.60
2023-05-23T03:16:26.398Z,25.40
2023-05-23T03:21:28.316Z,23.43
2023-05-23T03:26:30.783Z,24.33
2023-05-23T03:31:32.726Z,23.93
2023-05-23T03:36:35.986Z,24.57
2023-05-23T03:41:37.901Z,25.23
2023-05-23T03:46:40.259Z,23.13
2023-05-23T03:51:42.300Z,24.67
2023-05-23T03:56:44.525Z,23.13
2023-05-23T04:01:46.485Z,24.97
2023-05-23T04:06:48.434Z,25.07
2023-05-23T04:11:50.539Z,25.13
2023-05-23T04:16:52.602Z,25.80
2023-05-23T04:21:54.398Z,28.47
2023-05-23T04:26:56.384Z,26.53
2023-05-23T04:31:58.788Z,26.93
2023-05-23T04:37:04.173Z,27.17
2023-05-23T04:42:07.384Z,26.37
2023-05-23T04:47:09.726Z,28.30
2023-05-23T04:52:11.569Z,25.17
2023-05-23T04:57:13.525Z,27.07
2023-05-23T05:02:15.317Z,28.13
2023-05-23T05:07:17.935Z,31.00
2023-05-23T05:12:19.689Z,26.83
2023-05-23T05:17:21.468Z,29.47
2023-05-23T05:22:23.526Z,27.77
2023-05-23T05:27:27.145Z,30.40
2023-05-23T05:32:31.381Z,32.73
2023-05-23T05:37:33.484Z,40.93
2023-05-23T05:42:35.452Z,45.83
2023-05-23T05:47:38.869Z,44.93
2023-05-23T05:52:41.353Z,42.03
2023-05-23T05:57:43.194Z,44.10
2023-05-23T06:02:48.838Z,49.30
2023-05-23T06:07:51.295Z,43.00
2023-05-23T06:12:53.096Z,46.17
2023-05-23T06:17:55.104Z,49.97
2023-05-23T06:22:57.555Z,50.27
2023-05-23T06:27:59.651Z,51.17
2023-05-23T06:33:01.540Z,49.43
2023-05-23T06:38:03.428Z,48.23
2023-05-23T06:43:05.212Z,52.10
2023-05-23T06:48:07.087Z,52.30
2023-05-23T06:53:11.644Z,50.37
2023-05-23T06:58:13.479Z,52.13
2023-05-23T07:03:15.463Z,50.33
2023-05-23T07:08:17.255Z,51.73
2023-05-23T07:13:18.991Z,56.07
2023-05-23T07:18:20.860Z,52.47
2023-05-23T07:23:26.992Z,56.87
2023-05-23T07:28:28.931Z,55.63
2023-05-23T07:33:30.809Z,53.43
2023-05-23T07:38:32.574Z,53.67
2023-05-23T07:43:34.340Z,51.90
2023-05-23T07:48:36.141Z,57.90
2023-05-23T07:53:40.243Z,58.87
2023-05-23T07:58:42.147Z,57.93
2023-05-23T08:03:43.996Z,54.40
2023-05-23T08:08:46.116Z,55.77
2023-05-23T08:13:47.890Z,58.60
2023-05-23T08:18:49.686Z,49.60
2023-05-23T08:23:51.633Z,51.30
2023-05-23T08:28:53.721Z,53.47
2023-05-23T08:33:55.610Z,55.73
2023-05-23T08:38:57.421Z,56.33
2023-05-23T08:43:59.260Z,58.47
2023-05-23T08:49:01.321Z,53.03
2023-05-23T08:54:04.701Z,59.27
2023-05-23T08:59:08.491Z,60.00
2023-05-23T09:04:11.813Z,51.70
2023-05-23T09:09:13.592Z,58.47
2023-05-23T09:14:15.555Z,56.40
2023-05-23T09:19:19.443Z,56.67
2023-05-23T09:24:21.854Z,59.83
2023-05-23T09:29:23.961Z,55.13
2023-05-23T09:34:26.741Z,51.87
2023-05-23T09:39:28.540Z,56.60
2023-05-23T09:44:30.359Z,50.87
2023-05-23T09:49:32.130Z,46.37
2023-05-23T09:54:33.967Z,50.87
2023-05-23T09:59:41.595Z,51.13
2023-05-23T10:04:43.692Z,51.03
2023-05-23T10:09:56.817Z,46.23
2023-05-23T10:15:05.145Z,47.43
2023-05-23T10:20:16.819Z,44.40
2023-05-23T10:25:19.138Z,40.03
2023-05-23T10:30:21.776Z,41.23
2023-05-23T10:35:37.904Z,40.07
2023-05-23T10:41:03.861Z,37.63
2023-05-23T10:46:08.837Z,39.47
2023-05-23T10:51:15.291Z,38.23
2023-05-23T10:56:25.987Z,36.03
2023-05-23T11:01:27.965Z,36.07
2023-05-23T11:06:45.061Z,34.10
2023-05-23T11:12:02.916Z,30.50
2023-05-23T11:17:13.561Z,35.80
2023-05-23T11:22:15.980Z,29.53
2023-05-23T11:27:36.281Z,30.00
2023-05-23T11:32:38.274Z,25.67
2023-05-23T11:37:40.757Z,27.07
2023-05-23T11:42:43.583Z,28.43
2023-05-23T11:47:45.637Z,29.93
2023-05-23T11:52:51.676Z,30.33
2023-05-23T11:57:56.624Z,27.23
2023-05-23T12:02:58.535Z,27.97
2023-05-23T12:08:00.694Z,26.50
2023-05-23T12:13:02.652Z,27.13
2023-05-23T12:18:05.352Z,26.03
2023-05-23T12:23:07.331Z,28.17
2023-05-23T12:28:13.970Z,26.43
2023-05-23T12:33:18.266Z,29.70
2023-05-23T12:38:23.686Z,26.70
2023-05-23T12:43:25.546Z,25.50
2023-05-23T12:48:27.317Z,24.40
2023-05-23T12:53:29.704Z,22.90
2023-05-23T12:58:32.338Z,22.53
2023-05-23T13:03:34.161Z,19.27
2023-05-23T13:08:35.956Z,17.90
2023-05-23T13:13:37.821Z,20.23
2023-05-23T13:18:39.600Z,18.47
2023-05-23T13:23:41.733Z,19.83
2023-05-23T13:28:43.553Z,16.43
2023-05-23T13:33:45.317Z,16.10
2023-05-23T13:38:47.297Z,19.47
2023-05-23T13:43:49.227Z,17.47
2023-05-23T13:48:51.052Z,15.47
2023-05-23T13:53:52.850Z,15.43
2023-05-23T13:58:54.587Z,17.63
2023-05-23T14:03:56.608Z,18.57
2023-05-23T14:09:01.463Z,18.73
2023-05-23T14:14:03.271Z,15.63
2023-05-23T14:19:05.090Z,15.20
2023-05-23T14:24:07.321Z,19.87
2023-05-23T14:29:09.170Z,15.40
2023-05-23T14:34:11.482Z,15.10
2023-05-23T14:39:13.432Z,16.20
2023-05-23T14:44:15.307Z,15.00
2023-05-23T14:49:19.911Z,17.17
2023-05-23T14:54:22.074Z,13.70
2023-05-23T14:59:23.907Z,15.43
2023-05-23T15:04:25.760Z,13.17
2023-05-23T15:09:28.382Z,16.87
2023-05-23T15:14:32.163Z,14.47
2023-05-23T15:19:39.313Z,14.00
2023-05-23T15:24:41.194Z,14.47
2023-05-23T15:29:42.998Z,11.47
2023-05-23T15:34:44.762Z,13.20
2023-05-23T15:39:47.154Z,11.60
2023-05-23T15:44:48.990Z,15.50
2023-05-23T15:49:50.805Z,12.90
2023-05-23T15:54:52.610Z,11.40
2023-05-23T15:59:54.358Z,14.40
2023-05-23T16:04:57.651Z,14.90
2023-05-23T16:09:59.512Z,13.93
2023-05-23T16:15:01.310Z,12.07
2023-05-23T16:20:04.367Z,11.23
2023-05-23T16:25:07.967Z,11.07
2023-05-23T16:30:10.113Z,11.67
2023-05-23T16:35:12.120Z,11.27
2023-05-23T16:40:13.953Z,11.13
2023-05-23T16:45:15.935Z,10.57
2023-05-23T16:50:17.826Z,9.93
2023-05-23T16:55:19.617Z,10.23
2023-05-23T17:00:21.587Z,11.00
2023-05-23T17:05:23.395Z,10.17
2023-05-23T17:10:25.202Z,9.93
2023-05-23T17:15:26.972Z,10.57
2023-05-23T17:20:28.890Z,10.60
2023-05-23T17:25:31.263Z,9.40
2023-05-23T17:30:33.061Z,11.63
2023-05-23T17:35:34.828Z,10.53
2023-05-23T17:40:39.024Z,9.53
2023-05-23T17:45:41.521Z,9.83
2023-05-23T17:50:44.574Z,9.23
2023-05-23T17:55:47.717Z,8.83
2023-05-23T18:00:50.325Z,9.23
2023-05-23T18:05:52.167Z,10.07
2023-05-23T18:10:53.925Z,9.23
2023-05-23T18:15:55.704Z,9.67
2023-05-23T18:20:57.530Z,9.83
2023-05-23T18:25:59.451Z,10.13
2023-05-23T18:31:02.018Z,11.87
2023-05-23T18:36:04.081Z,12.23
2023-05-23T18:41:06.089Z,10.10
2023-05-23T18:46:07.893Z,12.10
2023-05-23T18:51:09.694Z,9.80
2023-05-23T18:56:11.495Z,11.07
2023-05-23T19:01:13.388Z,12.13
2023-05-23T19:06:15.280Z,12.93
2023-05-23T19:11:17.073Z,10.80
2023-05-23T19:16:20.485Z,12.23
2023-05-23T19:21:22.396Z,10.33
2023-05-23T19:26:24.167Z,10.73
2023-05-23T19:31:26.062Z,12.53
2023-05-23T19:36:27.829Z,10.87
2023-05-23T19:41:29.611Z,15.33
2023-05-23T19:46:31.413Z,15.53
2023-05-23T19:51:33.303Z,12.73
2023-05-23T19:56:36.185Z,13.17
2023-05-23T20:01:38.000Z,15.60
2023-05-23T20:06:40.240Z,14.20
2023-05-23T20:11:42.898Z,13.27
2023-05-23T20:16:44.665Z,12.50
2023-05-23T20:21:46.423Z,19.17
2023-05-23T20:26:48.300Z,13.70
2023-05-23T20:31:50.188Z,14.23
2023-05-23T20:36:52.004Z,14.23
2023-05-23T20:41:54.773Z,20.07
2023-05-23T20:46:57.146Z,16.43
2023-05-23T20:52:02.628Z,16.03
2023-05-23T20:57:07.737Z,21.43
2023-05-23T21:02:09.594Z,15.53
2023-05-23T21:07:13.358Z,16.13
2023-05-23T21:12:15.183Z,14.80
2023-05-23T21:17:19.645Z,18.10
2023-05-23T21:22:21.542Z,17.23
2023-05-23T21:27:23.395Z,15.90
2023-05-23T21:32:25.264Z,14.63
2023-05-23T21:37:27.454Z,16.63
2023-05-23T21:42:32.835Z,16.50
2023-05-23T21:47:34.679Z,16.47
2023-05-23T21:52:36.505Z,17.40
2023-05-23T21:57:38.448Z,18.13
2023-05-23T22:02:41.049Z,24.07
2023-05-23T22:07:44.096Z,20.90
2023-05-23T22:12:48.442Z,18.60
2023-05-23T22:17:52.621Z,22.77
2023-05-23T22:22:54.701Z,19.13
2023-05-23T22:28:00.338Z,18.43
2023-05-23T22:33:02.544Z,20.80
2023-05-23T22:38:04.355Z,25.40
2023-05-23T22:43:06.614Z,23.97
2023-05-23T22:48:11.856Z,25.47
2023-05-23T22:53:16.630Z,24.03
2023-05-23T22:58:18.441Z,23.67
2023-05-23T23:03:20.367Z,23.53
2023-05-23T23:08:22.485Z,23.33
2023-05-23T23:13:24.351Z,21.00
2023-05-23T23:18:27.043Z,25.20
2023-05-23T23:23:28.987Z,23.03
2023-05-23T23:28:30.837Z,23.83
2023-05-23T23:33:32.661Z,18.73
2023-05-23T23:38:34.439Z,21.57
2023-05-23T23:43:36.243Z,19.23
2023-05-23T23:48:38.028Z,20.00
2023-05-23T23:53:39.935Z,20.20
2023-05-23T23:58:41.799Z,19.57
